createdAt,value
2019-03-22T00:01:35.793Z,8.73
2019-03-22T00:04:08.658Z,14.57
2019-03-22T00:06:38.853Z,8.80
2019-03-22T00:09:09.005Z,8.63
2019-03-22T00:11:39.507Z,8.00
2019-03-22T00:14:09.493Z,7.90
2019-03-22T00:16:40.058Z,9.70
2019-03-22T00:19:10.206Z,7.97
2019-03-22T00:21:40.212Z,8.30
2019-03-22T00:24:10.209Z,8.47
2019-03-22T00:26:40.257Z,8.27
2019-03-22T00:29:10.360Z,8.40
2019-03-22T00:31:40.374Z,8.57
2019-03-22T00:34:10.843Z,9.27
2019-03-22T00:36:47.306Z,8.97
2019-03-22T00:39:18.024Z,8.43
2019-03-22T00:41:48.102Z,8.20
2019-03-22T00:44:18.512Z,8.97
2019-03-22T00:46:48.460Z,8.97
2019-03-22T00:49:18.549Z,8.73
2019-03-22T00:51:48.510Z,8.43
2019-03-22T00:54:18.605Z,8.50
2019-03-22T00:56:48.595Z,8.20
2019-03-22T00:59:20.635Z,8.70
2019-03-22T01:01:51.063Z,8.17
2019-03-22T01:04:21.070Z,8.93
2019-03-22T01:06:51.171Z,9.57
2019-03-22T01:09:21.454Z,8.60
2019-03-22T01:11:51.468Z,9.67
2019-03-22T01:14:21.442Z,9.37
2019-03-22T01:16:51.754Z,9.30
2019-03-22T01:19:21.839Z,9.57
2019-03-22T01:21:51.976Z,8.90
2019-03-22T01:24:23.233Z,9.07
2019-03-22T01:26:55.487Z,10.53
2019-03-22T01:29:25.495Z,13.10
2019-03-22T01:31:55.963Z,9.57
2019-03-22T01:34:26.178Z,10.07
2019-03-22T01:36:58.521Z,9.43
2019-03-22T01:39:28.653Z,9.57
2019-03-22T01:41:58.672Z,9.93
2019-03-22T01:44:28.680Z,9.23
2019-03-22T01:46:58.726Z,9.87
2019-03-22T01:49:28.755Z,9.33
2019-03-22T01:51:58.911Z,10.33
2019-03-22T01:54:28.981Z,8.87
2019-03-22T01:56:59.126Z,10.03
2019-03-22T01:59:32.594Z,9.50
2019-03-22T02:02:02.619Z,8.90
2019-03-22T02:04:32.618Z,9.17
2019-03-22T02:07:02.652Z,9.70
2019-03-22T02:09:33.270Z,9.53
2019-03-22T02:12:03.684Z,10.03
2019-03-22T02:14:34.293Z,8.67
2019-03-22T02:17:04.749Z,8.90
2019-03-22T02:19:34.913Z,9.83
2019-03-22T02:22:05.028Z,10.10
2019-03-22T02:24:36.495Z,9.17
2019-03-22T02:27:07.737Z,9.40
2019-03-22T02:29:37.649Z,10.37
2019-03-22T02:32:09.735Z,9.77
2019-03-22T02:34:39.785Z,10.27
2019-03-22T02:37:09.866Z,9.57
2019-03-22T02:39:40.749Z,9.63
2019-03-22T02:42:11.447Z,9.17
2019-03-22T02:44:44.763Z,9.07
2019-03-22T02:47:14.904Z,10.20
2019-03-22T02:49:45.093Z,18.27
2019-03-22T02:52:15.106Z,18.33
2019-03-22T02:54:45.361Z,10.00
2019-03-22T02:57:16.103Z,10.10
2019-03-22T02:59:46.328Z,9.37
2019-03-22T03:02:23.357Z,14.53
2019-03-22T03:04:54.731Z,10.43
2019-03-22T03:07:25.024Z,12.17
2019-03-22T03:09:55.179Z,11.33
2019-03-22T03:12:25.402Z,9.87
2019-03-22T03:14:55.475Z,11.50
2019-03-22T03:17:25.431Z,9.80
2019-03-22T03:19:55.516Z,10.40
2019-03-22T03:22:25.581Z,9.97
2019-03-22T03:24:55.533Z,10.13
2019-03-22T03:27:25.582Z,10.87
2019-03-22T03:29:55.644Z,10.87
2019-03-22T03:32:25.720Z,9.60
2019-03-22T03:34:55.702Z,10.47
2019-03-22T03:37:25.759Z,10.60
2019-03-22T03:39:56.512Z,10.27
2019-03-22T03:42:26.712Z,9.83
2019-03-22T03:44:56.802Z,10.73
2019-03-22T03:47:26.687Z,9.93
2019-03-22T03:49:56.773Z,10.30
2019-03-22T03:52:27.161Z,11.40
2019-03-22T03:54:57.453Z,9.83
2019-03-22T03:57:27.630Z,10.47
2019-03-22T03:59:57.622Z,10.77
2019-03-22T04:02:27.705Z,10.43
2019-03-22T04:04:58.749Z,9.77
2019-03-22T04:07:28.791Z,10.50
2019-03-22T04:09:59.075Z,10.50
2019-03-22T04:12:29.144Z,10.13
2019-03-22T04:14:59.199Z,11.53
2019-03-22T04:17:29.283Z,11.10
2019-03-22T04:19:59.386Z,11.47
2019-03-22T04:22:29.777Z,10.90
2019-03-22T04:24:59.812Z,12.20
2019-03-22T04:27:29.931Z,10.53
2019-03-22T04:30:00.807Z,12.03
2019-03-22T04:32:31.071Z,10.63
2019-03-22T04:35:01.373Z,10.87
2019-03-22T04:37:31.630Z,11.30
2019-03-22T04:40:01.689Z,10.60
2019-03-22T04:42:32.723Z,12.03
2019-03-22T04:45:03.012Z,11.27
2019-03-22T04:47:53.596Z,11.17
2019-03-22T04:50:24.741Z,11.37
2019-03-22T04:52:55.597Z,11.50
2019-03-22T04:55:26.026Z,11.50
2019-03-22T04:57:57.062Z,12.73
2019-03-22T05:00:27.690Z,13.03
2019-03-22T05:02:59.093Z,12.80
2019-03-22T05:05:29.761Z,17.70
2019-03-22T05:08:01.251Z,12.47
2019-03-22T05:10:33.108Z,12.97
2019-03-22T05:13:04.261Z,13.13
2019-03-22T05:15:35.049Z,19.07
2019-03-22T05:18:05.806Z,13.10
2019-03-22T05:20:37.714Z,13.53
2019-03-22T05:23:08.509Z,17.80
2019-03-22T05:25:39.504Z,14.10
2019-03-22T05:28:11.946Z,15.80
2019-03-22T05:31:49.822Z,14.83
2019-03-22T05:34:20.400Z,13.83
2019-03-22T05:36:51.325Z,13.03
2019-03-22T05:39:21.283Z,14.73
2019-03-22T05:41:51.840Z,14.27
2019-03-22T05:44:23.803Z,15.63
2019-03-22T05:46:54.112Z,14.03
2019-03-22T05:49:25.575Z,15.67
2019-03-22T05:51:55.883Z,14.40
2019-03-22T05:54:25.885Z,18.33
2019-03-22T05:56:56.279Z,16.63
2019-03-22T05:59:26.273Z,17.13
2019-03-22T06:01:56.852Z,14.30
2019-03-22T06:04:27.379Z,15.03
2019-03-22T06:06:57.515Z,22.63
2019-03-22T06:09:28.202Z,19.33
2019-03-22T06:11:59.015Z,15.40
2019-03-22T06:14:29.270Z,16.97
2019-03-22T06:16:59.301Z,16.27
2019-03-22T06:19:29.958Z,17.57
2019-03-22T06:22:00.514Z,14.90
2019-03-22T06:24:30.542Z,15.83
2019-03-22T06:27:02.766Z,16.63
2019-03-22T06:29:33.286Z,19.20
2019-03-22T06:32:03.245Z,20.00
2019-03-22T06:34:35.195Z,16.27
2019-03-22T06:37:05.628Z,14.83
2019-03-22T06:39:36.108Z,15.70
2019-03-22T06:42:06.244Z,15.43
2019-03-22T06:44:36.589Z,15.10
2019-03-22T06:47:07.069Z,18.70
2019-03-22T06:49:37.575Z,17.13
2019-03-22T06:52:07.880Z,17.13
2019-03-22T06:54:40.489Z,21.23
2019-03-22T06:57:19.370Z,16.93
2019-03-22T07:00:05.485Z,17.30
2019-03-22T07:02:53.234Z,24.10
2019-03-22T07:05:23.308Z,16.07
2019-03-22T07:07:53.305Z,17.77
2019-03-22T07:10:23.650Z,14.17
2019-03-22T07:12:54.239Z,17.07
2019-03-22T07:15:24.833Z,16.07
2019-03-22T07:17:54.853Z,19.10
2019-03-22T07:20:26.930Z,17.53
2019-03-22T07:22:57.216Z,22.53
2019-03-22T07:25:27.587Z,19.33
2019-03-22T07:27:57.910Z,18.07
2019-03-22T07:30:28.612Z,21.83
2019-03-22T07:32:58.929Z,17.47
2019-03-22T07:35:29.712Z,21.13
2019-03-22T07:38:00.204Z,17.30
2019-03-22T07:40:30.493Z,20.17
2019-03-22T07:43:01.113Z,17.73
2019-03-22T07:45:31.530Z,18.87
2019-03-22T07:48:01.878Z,16.67
2019-03-22T07:50:32.544Z,22.40
2019-03-22T07:53:03.063Z,19.60
2019-03-22T07:55:33.116Z,21.70
2019-03-22T07:58:03.550Z,19.57
2019-03-22T08:00:33.735Z,25.97
2019-03-22T08:03:04.093Z,22.87
2019-03-22T08:05:34.212Z,25.00
2019-03-22T08:08:04.703Z,20.80
2019-03-22T08:10:35.123Z,18.87
2019-03-22T08:13:05.195Z,14.80
2019-03-22T08:15:43.668Z,19.30
2019-03-22T08:18:16.923Z,18.23
2019-03-22T08:20:47.671Z,20.90
2019-03-22T08:23:22.375Z,24.30
2019-03-22T08:25:53.201Z,21.87
2019-03-22T08:28:23.483Z,24.00
2019-03-22T08:30:54.051Z,23.70
2019-03-22T08:33:25.655Z,22.40
2019-03-22T08:35:55.782Z,25.17
2019-03-22T08:38:26.343Z,21.10
2019-03-22T08:40:57.403Z,20.97
2019-03-22T08:43:28.167Z,22.77
2019-03-22T08:45:58.563Z,20.47
2019-03-22T08:48:28.692Z,23.20
2019-03-22T08:50:59.322Z,18.70
2019-03-22T08:53:29.568Z,18.90
2019-03-22T08:55:59.690Z,21.50
2019-03-22T08:58:30.741Z,19.60
2019-03-22T09:01:01.325Z,19.87
2019-03-22T09:03:31.320Z,19.40
2019-03-22T09:06:01.868Z,21.20
2019-03-22T09:08:31.889Z,21.47
2019-03-22T09:11:01.911Z,20.37
2019-03-22T09:13:32.293Z,20.30
2019-03-22T09:16:02.946Z,19.03
2019-03-22T09:18:33.066Z,20.00
2019-03-22T09:21:03.528Z,23.03
2019-03-22T09:23:33.531Z,16.97
2019-03-22T09:26:03.863Z,17.37
2019-03-22T09:28:34.157Z,16.57
2019-03-22T09:31:10.266Z,16.80
2019-03-22T09:33:36.884Z,16.40
2019-03-22T09:36:07.708Z,17.50
2019-03-22T09:38:38.988Z,17.33
2019-03-22T09:41:10.179Z,15.83
2019-03-22T09:43:40.386Z,21.73
2019-03-22T09:46:10.975Z,19.87
2019-03-22T09:48:41.355Z,17.67
2019-03-22T09:51:11.625Z,15.67
2019-03-22T09:53:41.634Z,16.93
2019-03-22T09:56:12.035Z,16.67
2019-03-22T09:58:42.062Z,17.40
2019-03-22T10:01:23.219Z,13.90
2019-03-22T10:03:43.760Z,14.07
2019-03-22T10:06:16.297Z,14.60
2019-03-22T10:08:47.174Z,14.07
2019-03-22T10:11:18.147Z,16.77
2019-03-22T10:13:48.950Z,15.43
2019-03-22T10:16:19.215Z,16.47
2019-03-22T10:18:50.188Z,14.13
2019-03-22T10:21:23.951Z,14.27
2019-03-22T10:23:54.426Z,16.53
2019-03-22T10:26:24.875Z,16.97
2019-03-22T10:28:55.594Z,24.60
2019-03-22T10:31:36.373Z,12.47
2019-03-22T10:33:57.874Z,16.43
2019-03-22T10:36:28.605Z,12.27
2019-03-22T10:38:58.775Z,12.33
2019-03-22T10:41:29.239Z,12.60
2019-03-22T10:44:00.264Z,11.60
2019-03-22T10:46:30.769Z,14.47
2019-03-22T10:49:43.564Z,12.40
2019-03-22T10:52:24.692Z,12.53
2019-03-22T10:55:30.194Z,13.63
2019-03-22T10:57:59.084Z,12.33
2019-03-22T11:00:29.228Z,15.83
2019-03-22T11:02:59.286Z,10.97
2019-03-22T11:05:29.371Z,12.43
2019-03-22T11:07:59.635Z,15.03
2019-03-22T11:10:29.720Z,13.27
2019-03-22T11:13:00.317Z,14.03
2019-03-22T11:15:30.879Z,16.70
2019-03-22T11:18:01.242Z,14.40
2019-03-22T11:20:31.317Z,13.37
2019-03-22T11:23:01.649Z,12.43
2019-03-22T11:25:31.707Z,14.07
2019-03-22T11:28:02.005Z,11.30
2019-03-22T11:30:32.040Z,16.40
2019-03-22T11:33:02.157Z,23.57
2019-03-22T11:35:32.850Z,13.37
2019-03-22T11:38:03.338Z,12.97
2019-03-22T11:40:34.674Z,10.87
2019-03-22T11:43:08.946Z,11.07
2019-03-22T11:45:36.948Z,9.67
2019-03-22T11:48:07.181Z,10.73
2019-03-22T11:50:37.912Z,10.77
2019-03-22T11:53:08.427Z,20.13
2019-03-22T11:55:38.588Z,18.10
2019-03-22T11:58:08.880Z,11.60
2019-03-22T12:00:39.233Z,9.83
2019-03-22T12:03:09.178Z,13.63
2019-03-22T12:05:40.634Z,9.87
2019-03-22T12:08:11.551Z,7.60
2019-03-22T12:10:41.623Z,9.47
2019-03-22T12:16:41.100Z,11.77
2019-03-22T12:19:11.422Z,7.37
2019-03-22T12:21:41.763Z,11.93
2019-03-22T12:24:12.546Z,17.20
2019-03-22T12:26:42.558Z,13.00
2019-03-22T12:29:12.587Z,9.43
2019-03-22T12:31:43.448Z,7.57
2019-03-22T12:34:13.660Z,16.30
2019-03-22T12:36:43.626Z,6.85
2019-03-22T12:39:13.691Z,6.42
2019-03-22T12:41:43.698Z,10.63
2019-03-22T12:44:14.914Z,7.70
2019-03-22T12:47:11.911Z,6.65
2019-03-22T12:49:49.798Z,7.17
2019-03-22T12:52:20.380Z,6.80
2019-03-22T12:54:50.289Z,6.30
2019-03-22T12:57:20.737Z,5.60
2019-03-22T12:59:51.311Z,8.20
2019-03-22T13:02:21.627Z,6.17
2019-03-22T13:04:51.644Z,8.55
2019-03-22T13:07:21.975Z,7.50
2019-03-22T13:09:52.206Z,8.63
2019-03-22T13:12:22.491Z,5.65
2019-03-22T13:14:52.672Z,8.10
2019-03-22T13:17:23.146Z,5.83
2019-03-22T13:19:53.189Z,4.70
2019-03-22T13:22:23.801Z,5.05
2019-03-22T13:24:54.155Z,5.70
2019-03-22T13:27:24.169Z,5.87
2019-03-22T13:29:54.930Z,6.28
2019-03-22T13:32:26.802Z,6.15
2019-03-22T13:35:00.627Z,5.15
2019-03-22T13:37:31.310Z,4.95
2019-03-22T13:40:02.011Z,4.40
2019-03-22T13:42:32.009Z,4.50
2019-03-22T13:45:02.390Z,6.67
2019-03-22T13:47:32.392Z,5.20
2019-03-22T13:50:02.997Z,5.35
2019-03-22T13:52:33.234Z,4.72
2019-03-22T13:55:03.888Z,5.37
2019-03-22T13:57:34.510Z,3.98
2019-03-22T14:00:55.663Z,3.33
2019-03-22T14:03:25.744Z,3.17
2019-03-22T14:05:56.051Z,9.33
2019-03-22T14:08:27.119Z,3.35
2019-03-22T14:10:57.352Z,4.55
2019-03-22T14:13:27.767Z,3.10
2019-03-22T14:15:58.090Z,3.62
2019-03-22T14:18:28.093Z,5.30
2019-03-22T14:21:29.414Z,3.27
2019-03-22T14:23:59.392Z,4.55
2019-03-22T14:26:29.690Z,3.40
2019-03-22T14:29:17.638Z,2.90
2019-03-22T14:31:48.588Z,5.12
2019-03-22T14:34:18.935Z,3.02
2019-03-22T14:36:51.605Z,3.10
2019-03-22T14:39:23.272Z,2.77
2019-03-22T14:42:00.495Z,3.10
2019-03-22T14:44:30.723Z,2.85
2019-03-22T14:47:01.240Z,3.20
2019-03-22T14:49:33.766Z,3.67
2019-03-22T14:52:06.641Z,6.37
2019-03-22T14:54:37.627Z,3.58
2019-03-22T14:57:09.006Z,3.92
2019-03-22T14:59:43.538Z,2.90
2019-03-22T15:02:13.802Z,3.20
2019-03-22T15:08:28.804Z,3.40
2019-03-22T15:14:45.412Z,8.68
2019-03-22T15:17:40.636Z,9.03
2019-03-22T15:20:29.000Z,4.90
2019-03-22T15:23:30.269Z,3.72
2019-03-22T15:26:24.462Z,8.08
2019-03-22T15:29:30.218Z,3.67
2019-03-22T15:32:15.145Z,5.30
2019-03-22T15:35:10.989Z,4.87
2019-03-22T15:41:40.217Z,3.77
2019-03-22T15:44:13.604Z,6.00
2019-03-22T15:46:44.179Z,3.90
2019-03-22T15:49:14.572Z,4.50
2019-03-22T15:51:45.374Z,4.33
2019-03-22T15:54:15.387Z,3.72
2019-03-22T15:56:47.328Z,4.42
2019-03-22T15:59:17.413Z,4.20
2019-03-22T16:01:47.720Z,4.83
2019-03-22T16:04:18.823Z,5.55
2019-03-22T16:06:49.111Z,4.80
2019-03-22T16:09:19.475Z,3.35
2019-03-22T16:11:50.175Z,4.17
2019-03-22T16:14:20.748Z,3.77
2019-03-22T16:16:51.155Z,4.15
2019-03-22T16:19:21.232Z,3.95
2019-03-22T16:21:51.462Z,4.45
2019-03-22T16:24:25.161Z,3.87
2019-03-22T16:26:56.030Z,4.95
2019-03-22T16:29:26.435Z,3.20
2019-03-22T16:31:57.674Z,9.58
2019-03-22T16:34:28.365Z,3.75
2019-03-22T16:36:58.869Z,3.65
2019-03-22T16:39:30.451Z,4.45
2019-03-22T16:42:00.945Z,5.15
2019-03-22T16:44:31.851Z,5.65
2019-03-22T16:47:02.631Z,5.25
2019-03-22T16:49:32.805Z,5.87
2019-03-22T16:52:03.206Z,5.23
2019-03-22T16:54:33.685Z,5.60
2019-03-22T16:57:07.117Z,5.97
2019-03-22T16:59:38.458Z,5.53
2019-03-22T17:02:09.465Z,5.80
2019-03-22T17:04:47.449Z,6.00
2019-03-22T17:07:20.431Z,4.73
2019-03-22T17:09:51.879Z,5.23
2019-03-22T17:12:24.523Z,6.30
2019-03-22T17:14:55.244Z,6.03
2019-03-22T17:17:25.610Z,6.37
2019-03-22T17:19:55.788Z,6.37
2019-03-22T17:22:26.762Z,5.83
2019-03-22T17:24:58.361Z,6.53
2019-03-22T17:27:28.689Z,6.17
2019-03-22T17:29:58.689Z,6.90
2019-03-22T17:32:30.208Z,6.80
2019-03-22T17:35:01.104Z,6.27
2019-03-22T17:37:31.614Z,6.40
2019-03-22T17:40:04.298Z,7.00
2019-03-22T17:42:38.023Z,8.03
2019-03-22T17:45:09.017Z,7.00
2019-03-22T17:47:39.699Z,7.63
2019-03-22T17:50:10.651Z,6.93
2019-03-22T17:52:41.476Z,7.43
2019-03-22T17:55:12.366Z,7.53
2019-03-22T17:57:42.721Z,6.67
2019-03-22T18:00:31.168Z,6.37
2019-03-22T18:03:01.546Z,6.27
2019-03-22T18:05:37.878Z,6.40
2019-03-22T18:08:08.225Z,6.00
2019-03-22T18:10:38.767Z,5.80
2019-03-22T18:13:08.837Z,5.67
2019-03-22T18:15:39.137Z,5.60
2019-03-22T18:18:09.897Z,6.83
2019-03-22T18:20:40.202Z,6.00
2019-03-22T18:23:11.870Z,7.43
2019-03-22T18:25:41.877Z,7.70
2019-03-22T18:28:12.147Z,9.07
2019-03-22T18:30:42.959Z,8.13
2019-03-22T18:33:13.630Z,8.63
2019-03-22T18:35:50.144Z,8.80
2019-03-22T18:38:20.436Z,8.53
2019-03-22T18:40:51.027Z,9.23
2019-03-22T18:43:21.119Z,9.17
2019-03-22T18:45:53.417Z,8.53
2019-03-22T18:48:24.188Z,8.57
2019-03-22T18:50:57.009Z,9.17
2019-03-22T18:53:26.656Z,8.87
2019-03-22T18:56:04.277Z,7.63
2019-03-22T18:58:34.870Z,6.90
2019-03-22T19:01:05.385Z,8.70
2019-03-22T19:03:36.785Z,8.27
2019-03-22T19:06:08.061Z,8.17
2019-03-22T19:08:38.198Z,8.13
2019-03-22T19:11:09.468Z,8.03
2019-03-22T19:13:39.763Z,7.50
2019-03-22T19:16:10.820Z,8.07
2019-03-22T19:18:41.019Z,7.10
2019-03-22T19:21:11.687Z,7.03
2019-03-22T19:23:43.896Z,7.70
2019-03-22T19:26:16.129Z,8.00
2019-03-22T19:28:47.817Z,7.33
2019-03-22T19:31:23.084Z,6.70
2019-03-22T19:33:55.263Z,6.93
2019-03-22T19:36:25.424Z,7.10
2019-03-22T19:38:55.741Z,6.67
2019-03-22T19:41:26.645Z,7.00
2019-03-22T19:43:56.906Z,7.23
2019-03-22T19:46:28.627Z,6.77
2019-03-22T19:49:01.462Z,6.93
2019-03-22T19:52:09.813Z,6.63
2019-03-22T19:54:40.679Z,7.13
2019-03-22T19:57:11.283Z,6.70
2019-03-22T19:59:41.855Z,6.03
2019-03-22T20:02:12.365Z,6.50
2019-03-22T20:04:42.484Z,7.53
2019-03-22T20:07:12.588Z,7.33
2019-03-22T20:09:43.598Z,7.40
2019-03-22T20:12:15.775Z,7.63
2019-03-22T20:14:46.131Z,7.20
2019-03-22T20:17:16.151Z,6.87
2019-03-22T20:19:47.637Z,7.00
2019-03-22T20:22:18.647Z,6.50
2019-03-22T20:24:49.652Z,6.80
2019-03-22T20:27:20.377Z,6.87
2019-03-22T20:29:50.819Z,5.63
2019-03-22T20:32:20.845Z,6.57
2019-03-22T20:34:51.285Z,5.43
2019-03-22T20:37:21.805Z,5.77
2019-03-22T20:39:51.779Z,7.60
2019-03-22T20:42:22.194Z,7.07
2019-03-22T20:44:52.417Z,6.73
2019-03-22T20:47:22.579Z,6.73
2019-03-22T20:49:53.856Z,5.80
2019-03-22T20:52:24.721Z,6.60
2019-03-22T20:54:56.041Z,6.53
2019-03-22T20:57:32.443Z,5.27
2019-03-22T21:00:02.481Z,5.73
2019-03-22T21:02:32.515Z,5.83
2019-03-22T21:05:03.181Z,5.10
2019-03-22T21:07:33.336Z,5.70
2019-03-22T21:10:03.959Z,5.50
2019-03-22T21:12:40.352Z,5.67
2019-03-22T21:15:11.093Z,6.47
2019-03-22T21:17:43.253Z,5.47
2019-03-22T21:20:13.764Z,5.80
2019-03-22T21:22:44.402Z,5.30
2019-03-22T21:25:14.592Z,4.83
2019-03-22T21:27:44.942Z,5.90
2019-03-22T21:30:14.973Z,5.93
2019-03-22T21:32:52.320Z,5.70
2019-03-22T21:35:23.188Z,5.60
2019-03-22T21:38:10.786Z,5.43
2019-03-22T21:40:53.495Z,5.90
2019-03-22T21:43:22.103Z,5.67
2019-03-22T21:45:54.014Z,5.67
2019-03-22T21:48:24.682Z,5.60
2019-03-22T21:50:56.122Z,5.23
2019-03-22T21:53:26.682Z,5.00
2019-03-22T21:55:57.275Z,5.57
2019-03-22T21:58:27.533Z,5.67
2019-03-22T22:00:57.711Z,5.43
2019-03-22T22:03:28.484Z,5.83
2019-03-22T22:05:58.897Z,5.60
2019-03-22T22:08:30.349Z,5.27
2019-03-22T22:11:00.369Z,5.33
2019-03-22T22:13:31.061Z,5.23
2019-03-22T22:16:01.112Z,5.60
2019-03-22T22:18:31.188Z,5.80
2019-03-22T22:21:01.815Z,5.27
2019-03-22T22:23:31.923Z,5.07
2019-03-22T22:26:02.196Z,4.90
2019-03-22T22:28:32.227Z,5.10
2019-03-22T22:31:02.763Z,5.27
2019-03-22T22:33:33.089Z,6.43
2019-03-22T22:36:03.070Z,4.90
2019-03-22T22:38:33.795Z,5.57
2019-03-22T22:41:03.818Z,5.37
2019-03-22T22:43:45.287Z,5.53
2019-03-22T22:46:15.799Z,5.73
2019-03-22T22:48:46.175Z,6.40
2019-03-22T22:51:17.904Z,6.90
2019-03-22T22:53:48.273Z,6.87
2019-03-22T22:56:18.219Z,6.47
2019-03-22T22:58:48.926Z,6.30
2019-03-22T23:01:18.882Z,7.33
2019-03-22T23:03:49.056Z,5.97
2019-03-22T23:06:19.903Z,6.13
2019-03-22T23:08:50.250Z,6.47
2019-03-22T23:11:20.288Z,5.50
2019-03-22T23:13:50.345Z,5.97
2019-03-22T23:16:20.309Z,6.10
2019-03-22T23:18:50.611Z,5.40
2019-03-22T23:21:21.231Z,5.70
2019-03-22T23:23:52.685Z,6.33
2019-03-22T23:26:22.708Z,6.27
2019-03-22T23:28:53.041Z,5.87
2019-03-22T23:31:23.149Z,6.27
2019-03-22T23:33:53.956Z,6.40
2019-03-22T23:36:24.302Z,5.97
2019-03-22T23:38:54.952Z,5.93
2019-03-22T23:41:24.914Z,6.53
2019-03-22T23:43:55.323Z,6.53
2019-03-22T23:46:25.394Z,7.57
2019-03-22T23:48:55.843Z,5.77
2019-03-22T23:51:26.182Z,17.07
2019-03-22T23:53:57.003Z,12.67
2019-03-22T23:56:27.309Z,9.63
2019-03-22T23:58:59.084Z,17.23
